createdAt,value
2022-11-24T00:02:03.915Z,8.43
2022-11-24T00:05:46.311Z,6.55
2022-11-24T00:09:28.325Z,7.45
2022-11-24T00:13:10.229Z,7.72
2022-11-24T00:16:52.229Z,10.10
2022-11-24T00:20:34.135Z,7.82
2022-11-24T00:24:16.198Z,8.85
2022-11-24T00:27:58.167Z,9.02
2022-11-24T00:31:41.908Z,7.32
2022-11-24T00:35:23.808Z,8.07
2022-11-24T00:39:15.104Z,11.18
2022-11-24T00:42:57.026Z,6.38
2022-11-24T00:46:39.338Z,12.77
2022-11-24T00:50:21.373Z,11.10
2022-11-24T00:54:03.351Z,9.40
2022-11-24T00:57:45.358Z,9.25
2022-11-24T01:01:31.089Z,9.77
2022-11-24T01:05:13.160Z,12.50
2022-11-24T01:08:57.178Z,10.75
2022-11-24T01:12:39.071Z,8.68
2022-11-24T01:16:31.413Z,7.13
2022-11-24T01:20:13.722Z,9.63
2022-11-24T01:23:55.614Z,11.23
2022-11-24T01:27:38.342Z,11.85
2022-11-24T01:31:20.366Z,19.20
2022-11-24T01:35:06.118Z,16.63
2022-11-24T01:38:48.059Z,17.25
2022-11-24T01:42:43.751Z,16.60
2022-11-24T01:46:44.752Z,22.80
2022-11-24T01:50:26.877Z,16.45
2022-11-24T01:54:31.947Z,12.45
2022-11-24T01:58:21.140Z,17.42
2022-11-24T02:02:03.812Z,16.63
2022-11-24T02:05:58.723Z,16.73
2022-11-24T02:09:50.347Z,14.63
2022-11-24T02:13:35.593Z,21.60
2022-11-24T02:17:17.488Z,19.95
2022-11-24T02:21:00.676Z,18.23
2022-11-24T02:24:54.100Z,19.23
2022-11-24T02:28:36.458Z,29.42
2022-11-24T02:32:19.481Z,22.92
2022-11-24T02:36:01.412Z,18.75
2022-11-24T02:39:43.262Z,21.20
2022-11-24T02:43:28.959Z,17.50
2022-11-24T02:47:12.511Z,17.60
2022-11-24T02:50:54.776Z,17.55
2022-11-24T02:54:37.155Z,21.23
2022-11-24T02:58:19.259Z,17.63
2022-11-24T03:02:01.232Z,23.85
2022-11-24T03:05:43.130Z,20.83
2022-11-24T03:09:25.037Z,16.42
2022-11-24T03:13:07.002Z,23.10
2022-11-24T03:16:48.888Z,23.35
2022-11-24T03:20:30.858Z,19.70
2022-11-24T03:24:12.729Z,23.20
2022-11-24T03:27:57.347Z,29.52
2022-11-24T03:31:39.311Z,19.83
2022-11-24T03:35:22.149Z,19.33
2022-11-24T03:39:04.186Z,26.77
2022-11-24T03:42:46.122Z,19.02
2022-11-24T03:46:28.028Z,18.55
2022-11-24T03:50:10.042Z,22.40
2022-11-24T03:53:51.938Z,18.40
2022-11-24T03:57:33.914Z,24.00
2022-11-24T04:01:15.885Z,15.80
2022-11-24T04:04:59.232Z,21.27
2022-11-24T04:08:41.102Z,24.58
2022-11-24T04:12:42.025Z,17.48
2022-11-24T04:16:24.080Z,21.17
2022-11-24T04:20:06.774Z,22.33
2022-11-24T04:23:48.618Z,24.75
2022-11-24T04:27:32.323Z,22.73
2022-11-24T04:31:14.325Z,19.45
2022-11-24T04:34:56.307Z,17.10
2022-11-24T04:39:25.473Z,21.05
2022-11-24T04:42:40.491Z,23.17
2022-11-24T04:46:22.398Z,14.60
2022-11-24T04:50:04.963Z,26.48
2022-11-24T04:53:49.034Z,24.65
2022-11-24T04:57:30.911Z,24.08
2022-11-24T05:01:12.826Z,24.42
2022-11-24T05:04:54.761Z,18.42
2022-11-24T05:08:37.014Z,24.35
2022-11-24T05:12:18.876Z,30.38
2022-11-24T05:16:01.789Z,23.60
2022-11-24T05:19:43.779Z,25.50
2022-11-24T05:23:26.121Z,27.00
2022-11-24T05:27:07.979Z,18.73
2022-11-24T05:30:49.883Z,26.55
2022-11-24T05:34:33.668Z,31.83
2022-11-24T05:38:17.137Z,20.67
2022-11-24T05:41:59.124Z,27.90
2022-11-24T05:45:41.174Z,22.10
2022-11-24T05:49:23.077Z,25.88
2022-11-24T05:53:08.300Z,20.38
2022-11-24T05:56:50.273Z,30.77
2022-11-24T06:00:33.834Z,18.13
2022-11-24T06:04:15.755Z,20.55
2022-11-24T06:07:59.514Z,20.90
2022-11-24T06:11:41.446Z,17.80
2022-11-24T06:15:23.423Z,21.55
2022-11-24T06:19:05.350Z,18.63
2022-11-24T06:22:48.328Z,30.55
2022-11-24T06:26:30.185Z,25.10
2022-11-24T06:30:13.040Z,28.80
2022-11-24T06:33:54.912Z,28.55
2022-11-24T06:37:37.411Z,29.38
2022-11-24T06:41:19.894Z,24.35
2022-11-24T06:45:04.852Z,21.50
2022-11-24T06:48:53.753Z,28.33
2022-11-24T06:52:35.636Z,19.08
2022-11-24T06:56:20.553Z,24.10
2022-11-24T07:00:04.136Z,27.67
2022-11-24T07:03:48.141Z,25.30
2022-11-24T07:07:30.080Z,30.75
2022-11-24T07:11:17.917Z,27.38
2022-11-24T07:14:59.773Z,33.22
2022-11-24T07:18:42.956Z,23.13
2022-11-24T07:22:24.929Z,23.58
2022-11-24T07:26:08.873Z,32.65
2022-11-24T07:29:50.743Z,16.85
2022-11-24T07:33:32.610Z,35.67
2022-11-24T07:37:14.494Z,40.67
2022-11-24T07:41:01.367Z,33.17
2022-11-24T07:44:43.298Z,33.95
2022-11-24T07:48:25.187Z,35.67
2022-11-24T07:52:08.232Z,35.92
2022-11-24T07:56:01.904Z,38.80
2022-11-24T07:59:43.799Z,31.13
2022-11-24T08:03:26.004Z,40.03
2022-11-24T08:07:08.016Z,36.80
2022-11-24T08:10:50.046Z,36.95
2022-11-24T08:14:32.111Z,41.58
2022-11-24T08:18:14.195Z,40.30
2022-11-24T08:21:56.115Z,51.03
2022-11-24T08:25:37.980Z,47.67
2022-11-24T08:29:19.920Z,49.22
2022-11-24T08:33:02.237Z,45.78
2022-11-24T08:36:44.125Z,41.78
2022-11-24T08:40:26.063Z,40.00
2022-11-24T08:44:09.319Z,42.75
2022-11-24T08:47:55.600Z,33.08
2022-11-24T08:51:37.546Z,37.35
2022-11-24T08:55:20.099Z,34.78
2022-11-24T08:59:03.017Z,47.53
2022-11-24T09:02:44.935Z,41.70
2022-11-24T09:06:30.991Z,41.88
2022-11-24T09:10:13.866Z,42.20
2022-11-24T09:13:56.025Z,39.88
2022-11-24T09:17:37.944Z,31.90
2022-11-24T09:21:22.201Z,38.60
2022-11-24T09:25:06.809Z,36.53
2022-11-24T09:28:49.363Z,36.90
2022-11-24T09:32:31.217Z,30.98
2022-11-24T09:36:14.038Z,31.40
2022-11-24T09:39:55.884Z,31.77
2022-11-24T09:43:56.543Z,38.03
2022-11-24T09:48:10.137Z,34.38
2022-11-24T09:51:55.089Z,37.75
2022-11-24T09:55:45.370Z,40.95
2022-11-24T09:59:28.587Z,37.70
2022-11-24T10:03:44.534Z,37.88
2022-11-24T10:07:32.927Z,37.00
2022-11-24T10:11:38.798Z,41.67
2022-11-24T10:15:45.417Z,44.25
2022-11-24T10:20:05.784Z,32.90
2022-11-24T10:24:09.363Z,24.48
2022-11-24T10:28:15.704Z,30.23
2022-11-24T10:31:57.942Z,27.17
2022-11-24T10:36:02.234Z,28.83
2022-11-24T10:39:59.641Z,36.83
2022-11-24T10:43:43.244Z,27.85
2022-11-24T10:47:25.110Z,27.33
2022-11-24T10:51:41.519Z,28.50
2022-11-24T10:55:23.716Z,26.88
2022-11-24T10:59:30.208Z,25.92
2022-11-24T11:03:18.781Z,30.92
2022-11-24T11:07:26.986Z,25.27
2022-11-24T11:11:27.967Z,28.30
2022-11-24T11:15:28.754Z,32.95
2022-11-24T11:19:49.827Z,27.67
2022-11-24T11:23:35.441Z,24.02
2022-11-24T11:27:18.534Z,25.92
2022-11-24T11:31:20.919Z,24.52
2022-11-24T11:35:03.746Z,30.52
2022-11-24T11:38:48.186Z,26.25
2022-11-24T11:46:35.132Z,24.95
2022-11-24T11:50:24.698Z,20.77
2022-11-24T11:54:46.287Z,23.88
2022-11-24T11:58:42.609Z,22.05
2022-11-24T12:02:52.910Z,25.05
2022-11-24T12:06:47.581Z,27.25
2022-11-24T12:10:48.253Z,22.85
2022-11-24T12:14:42.979Z,23.98
2022-11-24T12:23:00.045Z,29.70
2022-11-24T12:26:53.975Z,20.85
2022-11-24T12:30:51.334Z,31.40
2022-11-24T12:34:51.573Z,27.20
2022-11-24T12:39:06.592Z,22.20
2022-11-24T12:43:08.597Z,21.88
2022-11-24T12:47:11.668Z,27.38
2022-11-24T12:50:56.094Z,29.55
2022-11-24T12:54:41.026Z,24.70
2022-11-24T12:58:39.779Z,25.63
2022-11-24T13:02:37.671Z,21.60
2022-11-24T13:06:35.580Z,26.15
2022-11-24T13:10:54.904Z,28.60
2022-11-24T13:14:31.672Z,22.73
2022-11-24T13:18:57.635Z,20.27
2022-11-24T13:22:39.661Z,24.95
2022-11-24T13:26:43.863Z,20.52
2022-11-24T13:30:35.008Z,18.00
2022-11-24T13:34:39.947Z,20.17
2022-11-24T13:38:42.113Z,19.50
2022-11-24T13:42:41.586Z,24.00
2022-11-24T13:47:06.236Z,23.83
2022-11-24T13:50:52.202Z,19.50
2022-11-24T13:54:34.419Z,18.40
2022-11-24T13:58:41.904Z,20.85
2022-11-24T14:02:24.423Z,20.40
2022-11-24T14:06:06.743Z,13.45
2022-11-24T14:09:52.116Z,8.18
2022-11-24T14:13:34.653Z,8.85
2022-11-24T14:17:25.564Z,10.27
2022-11-24T14:21:28.496Z,12.80
2022-11-24T14:25:30.887Z,16.02
2022-11-24T14:29:23.047Z,14.65
2022-11-24T14:33:10.769Z,19.42
2022-11-24T14:36:56.827Z,18.90
2022-11-24T14:40:40.742Z,15.68
2022-11-24T14:44:28.082Z,18.30
2022-11-24T14:48:17.702Z,23.23
2022-11-24T14:52:02.934Z,12.23
2022-11-24T14:55:44.848Z,12.50
2022-11-24T14:59:30.483Z,14.85
2022-11-24T15:03:19.984Z,15.98
2022-11-24T15:07:01.874Z,8.82
2022-11-24T15:10:44.217Z,17.83
2022-11-24T15:14:46.383Z,12.73
2022-11-24T15:18:40.669Z,12.88
2022-11-24T15:22:31.790Z,9.70
2022-11-24T15:26:13.603Z,12.25
2022-11-24T15:29:55.568Z,13.93
2022-11-24T15:33:37.904Z,16.73
2022-11-24T15:37:19.852Z,9.73
2022-11-24T15:41:02.355Z,15.00
2022-11-24T15:44:44.293Z,17.83
2022-11-24T15:48:26.717Z,20.98
2022-11-24T15:52:08.771Z,18.40
2022-11-24T15:55:51.655Z,19.02
2022-11-24T15:59:33.973Z,15.23
2022-11-24T16:03:45.775Z,19.38
2022-11-24T16:07:18.162Z,17.67
2022-11-24T16:11:04.459Z,15.45
2022-11-24T16:14:46.394Z,26.17
2022-11-24T16:18:28.271Z,21.00
2022-11-24T16:22:10.163Z,23.73
2022-11-24T16:25:52.204Z,30.98
2022-11-24T16:29:38.212Z,36.45
2022-11-24T16:33:20.590Z,29.77
2022-11-24T16:37:02.488Z,29.92
2022-11-24T16:40:44.500Z,27.75
2022-11-24T16:44:26.467Z,30.08
2022-11-24T16:48:08.365Z,25.25
2022-11-24T16:51:50.222Z,19.23
2022-11-24T16:55:32.083Z,25.08
2022-11-24T16:59:14.005Z,28.88
2022-11-24T17:02:55.932Z,29.67
2022-11-24T17:06:37.840Z,28.05
2022-11-24T17:10:19.906Z,25.30
2022-11-24T17:14:02.999Z,21.38
2022-11-24T17:18:08.507Z,23.63
2022-11-24T17:21:46.717Z,22.60
2022-11-24T17:25:28.628Z,24.30
2022-11-24T17:29:10.666Z,24.75
2022-11-24T17:32:56.790Z,21.20
2022-11-24T17:36:44.755Z,27.23
2022-11-24T17:40:28.856Z,24.60
2022-11-24T17:44:12.699Z,25.23
2022-11-24T17:47:54.865Z,28.40
2022-11-24T17:51:36.757Z,32.60
2022-11-24T17:55:18.739Z,28.58
2022-11-24T17:59:01.082Z,33.78
2022-11-24T18:02:43.053Z,25.83
2022-11-24T18:06:25.519Z,22.85
2022-11-24T18:10:08.651Z,21.85
2022-11-24T18:14:01.194Z,12.95
2022-11-24T18:17:43.722Z,32.63
2022-11-24T18:21:25.834Z,33.63
2022-11-24T18:25:08.042Z,31.70
2022-11-24T18:28:50.658Z,20.95
2022-11-24T18:32:32.820Z,28.25
2022-11-24T18:36:19.693Z,22.27
2022-11-24T18:40:01.603Z,23.38
2022-11-24T18:43:43.605Z,25.13
2022-11-24T18:47:25.492Z,26.90
2022-11-24T18:51:08.747Z,27.90
2022-11-24T18:54:50.670Z,23.23
2022-11-24T18:58:34.404Z,23.58
2022-11-24T19:02:16.346Z,27.50
2022-11-24T19:06:02.312Z,31.58
2022-11-24T19:09:44.310Z,26.25
2022-11-24T19:13:26.208Z,22.13
2022-11-24T19:17:08.263Z,18.00
2022-11-24T19:20:50.102Z,25.13
2022-11-24T19:24:32.093Z,20.85
2022-11-24T19:28:14.031Z,19.13
2022-11-24T19:31:56.042Z,18.48
2022-11-24T19:35:37.975Z,25.80
2022-11-24T19:39:19.968Z,21.65
2022-11-24T19:43:01.829Z,26.40
2022-11-24T19:46:43.771Z,26.77
2022-11-24T19:50:25.635Z,20.58
2022-11-24T19:54:12.824Z,26.42
2022-11-24T19:57:54.671Z,29.50
2022-11-24T20:01:40.532Z,34.10
2022-11-24T20:05:22.443Z,43.38
2022-11-24T20:09:06.946Z,28.77
2022-11-24T20:12:48.906Z,22.75
2022-11-24T20:16:32.487Z,23.02
2022-11-24T20:20:14.475Z,22.48
2022-11-24T20:24:00.551Z,27.77
2022-11-24T20:27:42.412Z,24.77
2022-11-24T20:31:33.260Z,24.95
2022-11-24T20:35:18.395Z,24.98
2022-11-24T20:39:02.849Z,24.80
2022-11-24T20:42:44.699Z,13.23
2022-11-24T20:46:29.893Z,21.52
2022-11-24T20:50:11.767Z,19.42
2022-11-24T20:53:57.373Z,17.05
2022-11-24T20:57:39.206Z,21.40
2022-11-24T21:01:30.495Z,18.45
2022-11-24T21:05:12.441Z,23.27
2022-11-24T21:09:00.463Z,21.58
2022-11-24T21:12:45.268Z,26.40
2022-11-24T21:16:30.537Z,25.13
2022-11-24T21:20:12.823Z,21.55
2022-11-24T21:23:54.756Z,20.08
2022-11-24T21:27:36.622Z,23.65
2022-11-24T21:31:21.302Z,20.67
2022-11-24T21:35:03.233Z,20.85
2022-11-24T21:38:53.847Z,23.23
2022-11-24T21:42:35.842Z,24.73
2022-11-24T21:46:17.866Z,19.20
2022-11-24T21:49:59.775Z,23.65
2022-11-24T21:53:42.657Z,21.23
2022-11-24T21:57:24.641Z,22.15
2022-11-24T22:01:10.726Z,21.88
2022-11-24T22:04:52.738Z,22.00
2022-11-24T22:08:34.694Z,24.15
2022-11-24T22:12:17.108Z,21.95
2022-11-24T22:16:03.907Z,17.90
2022-11-24T22:19:45.814Z,28.83
2022-11-24T22:23:27.677Z,15.38
2022-11-24T22:27:09.580Z,20.40
2022-11-24T22:30:51.509Z,13.20
2022-11-24T22:34:33.588Z,22.52
2022-11-24T22:38:15.784Z,17.75
2022-11-24T22:41:57.691Z,15.75
2022-11-24T22:45:39.608Z,13.15
2022-11-24T22:49:21.810Z,21.23
2022-11-24T22:53:03.687Z,13.43
2022-11-24T22:56:45.796Z,24.67
2022-11-24T23:00:27.696Z,19.10
2022-11-24T23:04:09.732Z,19.23
2022-11-24T23:07:51.973Z,22.35
2022-11-24T23:11:39.228Z,18.55
2022-11-24T23:15:21.304Z,18.87
2022-11-24T23:19:03.647Z,15.10
2022-11-24T23:22:45.599Z,16.92
2022-11-24T23:26:32.979Z,18.17
2022-11-24T23:30:15.134Z,18.90
2022-11-24T23:34:02.098Z,20.50
2022-11-24T23:38:06.547Z,22.73
2022-11-24T23:41:46.128Z,16.33
2022-11-24T23:45:28.132Z,17.55
2022-11-24T23:49:10.139Z,17.73
2022-11-24T23:52:51.993Z,18.90
2022-11-24T23:56:33.885Z,17.65
